createdAt,value
2022-09-10T00:01:59.743Z,0.70
2022-09-10T00:04:27.961Z,0.50
2022-09-10T00:06:55.642Z,0.80
2022-09-10T00:09:23.075Z,0.60
2022-09-10T00:11:50.065Z,0.50
2022-09-10T00:14:20.330Z,0.77
2022-09-10T00:16:47.825Z,0.60
2022-09-10T00:19:15.606Z,0.85
2022-09-10T00:21:44.355Z,0.95
2022-09-10T00:24:13.421Z,0.88
2022-09-10T00:26:40.374Z,0.70
2022-09-10T00:29:10.679Z,0.95
2022-09-10T00:31:38.371Z,0.68
2022-09-10T00:34:06.090Z,0.68
2022-09-10T00:36:36.672Z,1.48
2022-09-10T00:39:06.456Z,0.52
2022-09-10T00:41:34.664Z,0.50
2022-09-10T00:44:22.194Z,1.20
2022-09-10T00:46:50.419Z,0.98
2022-09-10T00:49:26.921Z,0.60
2022-09-10T00:51:54.192Z,0.60
2022-09-10T00:54:25.123Z,0.60
2022-09-10T00:56:55.468Z,0.60
2022-09-10T00:59:26.155Z,0.85
2022-09-10T01:01:53.291Z,0.60
2022-09-10T01:04:20.139Z,0.63
2022-09-10T01:06:51.662Z,0.60
2022-09-10T01:12:04.460Z,0.70
2022-09-10T01:15:03.477Z,0.70
2022-09-10T01:18:11.687Z,0.60
2022-09-10T01:21:00.654Z,0.60
2022-09-10T01:23:44.660Z,0.63
2022-09-10T01:26:20.289Z,0.65
2022-09-10T01:29:02.204Z,0.70
2022-09-10T01:32:01.310Z,0.70
2022-09-10T01:34:32.762Z,0.82
2022-09-10T01:37:07.879Z,0.50
2022-09-10T01:39:37.230Z,0.50
2022-09-10T01:42:04.746Z,0.43
2022-09-10T01:44:48.393Z,0.37
2022-09-10T01:47:56.958Z,0.50
2022-09-10T01:50:41.178Z,0.68
2022-09-10T01:53:30.931Z,0.88
2022-09-10T01:56:35.619Z,0.75
2022-09-10T01:59:54.313Z,0.60
2022-09-10T02:02:29.046Z,0.60
2022-09-10T02:04:57.558Z,0.40
2022-09-10T02:07:26.866Z,0.65
2022-09-10T02:09:54.938Z,0.68
2022-09-10T02:12:23.830Z,0.57
2022-09-10T02:15:18.795Z,0.52
2022-09-10T02:17:56.090Z,0.43
2022-09-10T02:20:23.411Z,0.32
2022-09-10T02:22:55.767Z,0.30
2022-09-10T02:25:26.923Z,0.50
2022-09-10T02:27:57.256Z,0.60
2022-09-10T02:30:24.763Z,0.43
2022-09-10T02:32:51.903Z,0.55
2022-09-10T02:35:19.203Z,0.40
2022-09-10T02:37:49.839Z,0.50
2022-09-10T02:40:19.478Z,0.50
2022-09-10T02:42:46.903Z,0.68
2022-09-10T02:45:18.130Z,0.47
2022-09-10T02:47:44.839Z,0.52
2022-09-10T02:50:11.637Z,0.75
2022-09-10T02:52:39.225Z,0.50
2022-09-10T02:55:08.466Z,0.60
2022-09-10T02:57:35.747Z,0.50
2022-09-10T03:00:03.099Z,0.50
2022-09-10T03:02:29.925Z,0.50
2022-09-10T03:04:56.682Z,0.40
2022-09-10T03:07:24.813Z,0.90
2022-09-10T03:09:51.561Z,0.70
2022-09-10T03:12:18.678Z,0.50
2022-09-10T03:14:47.296Z,0.60
2022-09-10T03:17:14.227Z,0.88
2022-09-10T03:19:40.906Z,0.60
2022-09-10T03:22:07.655Z,0.70
2022-09-10T03:24:34.381Z,0.80
2022-09-10T03:27:01.439Z,0.55
2022-09-10T03:29:30.108Z,0.50
2022-09-10T03:31:58.383Z,0.52
2022-09-10T03:34:25.299Z,0.60
2022-09-10T03:36:52.057Z,0.30
2022-09-10T03:39:19.206Z,0.45
2022-09-10T03:41:46.639Z,0.60
2022-09-10T03:44:14.728Z,0.50
2022-09-10T03:46:41.443Z,0.85
2022-09-10T03:49:08.683Z,0.40
2022-09-10T03:51:35.511Z,0.63
2022-09-10T03:54:03.158Z,0.40
2022-09-10T03:56:32.331Z,0.85
2022-09-10T03:58:59.017Z,0.50
2022-09-10T04:01:28.069Z,0.40
2022-09-10T04:03:56.756Z,0.40
2022-09-10T04:06:25.652Z,0.40
2022-09-10T04:08:52.809Z,0.40
2022-09-10T04:11:23.935Z,0.50
2022-09-10T04:13:51.347Z,0.68
2022-09-10T04:16:18.794Z,0.45
2022-09-10T04:18:45.858Z,0.75
2022-09-10T04:21:15.747Z,0.60
2022-09-10T04:23:43.356Z,0.30
2022-09-10T04:26:20.394Z,0.50
2022-09-10T04:28:49.550Z,0.50
2022-09-10T04:31:17.391Z,0.55
2022-09-10T04:33:44.989Z,0.40
2022-09-10T04:36:12.895Z,0.40
2022-09-10T04:38:42.083Z,0.40
2022-09-10T04:41:10.839Z,0.57
2022-09-10T04:43:38.403Z,0.30
2022-09-10T04:46:06.394Z,0.60
2022-09-10T04:48:35.099Z,0.13
2022-09-10T04:51:16.123Z,0.43
2022-09-10T04:53:46.161Z,0.70
2022-09-10T04:56:13.848Z,0.60
2022-09-10T04:58:41.897Z,3.42
2022-09-10T05:01:09.939Z,5.07
2022-09-10T05:03:37.440Z,4.20
2022-09-10T05:06:06.239Z,2.25
2022-09-10T05:08:33.609Z,0.80
2022-09-10T05:11:02.921Z,0.50
2022-09-10T05:13:31.720Z,0.50
2022-09-10T05:15:59.975Z,0.32
2022-09-10T05:18:26.819Z,0.30
2022-09-10T05:20:54.290Z,0.40
2022-09-10T05:23:21.289Z,0.47
2022-09-10T05:25:49.598Z,0.60
2022-09-10T05:28:17.714Z,0.38
2022-09-10T05:30:49.551Z,0.65
2022-09-10T05:33:20.213Z,0.65
2022-09-10T05:35:51.521Z,2.00
2022-09-10T05:38:18.802Z,1.65
2022-09-10T05:40:45.707Z,1.02
2022-09-10T05:43:13.248Z,0.77
2022-09-10T05:45:40.547Z,0.50
2022-09-10T05:48:07.835Z,1.00
2022-09-10T05:50:34.658Z,0.98
2022-09-10T05:53:01.641Z,0.50
2022-09-10T05:55:31.264Z,0.50
2022-09-10T05:57:58.683Z,0.20
2022-09-10T06:00:26.235Z,0.30
2022-09-10T06:02:58.672Z,0.20
2022-09-10T06:05:33.293Z,0.22
2022-09-10T06:08:06.533Z,0.45
2022-09-10T06:10:37.299Z,0.20
2022-09-10T06:13:04.234Z,0.77
2022-09-10T06:15:36.186Z,0.52
2022-09-10T06:18:04.079Z,0.30
2022-09-10T06:20:32.106Z,0.10
2022-09-10T06:22:59.548Z,0.30
2022-09-10T06:25:26.333Z,0.20
2022-09-10T06:27:53.515Z,0.10
2022-09-10T06:30:20.713Z,0.10
2022-09-10T06:32:48.173Z,0.20
2022-09-10T06:35:15.582Z,0.55
2022-09-10T06:37:43.324Z,0.30
2022-09-10T06:40:12.165Z,0.15
2022-09-10T06:42:40.847Z,0.25
2022-09-10T06:45:13.414Z,0.30
2022-09-10T06:50:59.178Z,0.30
2022-09-10T06:53:33.621Z,0.40
2022-09-10T06:56:03.104Z,0.40
2022-09-10T06:58:36.415Z,0.40
2022-09-10T07:01:14.438Z,0.40
2022-09-10T07:03:45.632Z,0.63
2022-09-10T07:06:17.853Z,0.40
2022-09-10T07:08:47.748Z,0.60
2022-09-10T07:11:16.307Z,0.50
2022-09-10T07:13:44.353Z,0.68
2022-09-10T07:16:11.711Z,0.68
2022-09-10T07:18:38.919Z,0.60
2022-09-10T07:21:11.752Z,0.55
2022-09-10T07:23:44.070Z,0.38
2022-09-10T07:26:14.783Z,0.50
2022-09-10T07:28:46.538Z,0.52
2022-09-10T07:31:22.752Z,0.70
2022-09-10T07:33:50.837Z,0.50
2022-09-10T07:36:18.587Z,0.65
2022-09-10T07:38:48.114Z,0.40
2022-09-10T07:41:15.544Z,0.70
2022-09-10T07:43:44.424Z,0.77
2022-09-10T07:46:19.476Z,1.25
2022-09-10T07:48:48.814Z,0.85
2022-09-10T07:51:19.400Z,0.80
2022-09-10T07:53:51.399Z,0.68
2022-09-10T07:56:19.643Z,0.73
2022-09-10T07:58:47.169Z,0.47
2022-09-10T08:01:14.668Z,0.63
2022-09-10T08:03:43.096Z,0.88
2022-09-10T08:06:12.682Z,0.77
2022-09-10T08:08:40.553Z,1.23
2022-09-10T08:13:47.390Z,0.98
2022-09-10T08:16:20.669Z,0.70
2022-09-10T08:18:48.647Z,0.73
2022-09-10T08:21:18.056Z,0.77
2022-09-10T08:23:51.836Z,0.50
2022-09-10T08:26:21.015Z,0.77
2022-09-10T08:28:47.851Z,0.77
2022-09-10T08:31:16.692Z,0.80
2022-09-10T08:33:51.786Z,0.70
2022-09-10T08:36:19.523Z,0.77
2022-09-10T08:38:46.698Z,0.70
2022-09-10T08:41:23.265Z,0.85
2022-09-10T08:44:02.883Z,0.88
2022-09-10T08:46:37.265Z,0.63
2022-09-10T08:49:42.050Z,0.80
2022-09-10T08:52:29.718Z,0.60
2022-09-10T08:55:18.462Z,0.60
2022-09-10T08:57:57.519Z,1.15
2022-09-10T09:00:26.913Z,0.80
2022-09-10T09:03:02.350Z,0.82
2022-09-10T09:05:46.199Z,0.80
2022-09-10T09:08:19.033Z,0.70
2022-09-10T09:10:59.948Z,0.75
2022-09-10T09:13:57.367Z,0.60
2022-09-10T09:16:37.326Z,0.60
2022-09-10T09:19:18.169Z,0.75
2022-09-10T09:21:59.615Z,0.85
2022-09-10T09:24:59.398Z,0.63
2022-09-10T09:27:36.411Z,0.60
2022-09-10T09:30:23.087Z,0.40
2022-09-10T09:32:51.508Z,0.47
2022-09-10T09:35:37.032Z,0.50
2022-09-10T09:38:09.110Z,0.68
2022-09-10T09:40:51.562Z,0.57
2022-09-10T09:43:42.646Z,0.50
2022-09-10T09:46:19.587Z,0.70
2022-09-10T09:48:54.153Z,0.75
2022-09-10T09:51:25.242Z,0.50
2022-09-10T09:54:25.728Z,0.98
2022-09-10T09:56:49.872Z,0.60
2022-09-10T09:59:27.464Z,0.60
2022-09-10T10:01:59.327Z,0.40
2022-09-10T10:04:30.973Z,0.73
2022-09-10T10:06:59.906Z,0.35
2022-09-10T10:09:32.578Z,0.60
2022-09-10T10:12:04.663Z,0.40
2022-09-10T10:14:31.344Z,0.60
2022-09-10T10:17:01.001Z,0.55
2022-09-10T10:19:38.494Z,0.40
2022-09-10T10:22:26.177Z,0.32
2022-09-10T10:24:54.437Z,0.40
2022-09-10T10:27:41.680Z,0.43
2022-09-10T10:30:18.219Z,0.40
2022-09-10T10:32:57.454Z,0.43
2022-09-10T10:35:32.879Z,0.47
2022-09-10T10:38:25.219Z,0.45
2022-09-10T10:41:09.807Z,0.45
2022-09-10T10:44:15.647Z,0.50
2022-09-10T10:46:53.413Z,0.63
2022-09-10T10:49:50.521Z,0.50
2022-09-10T10:52:31.427Z,0.60
2022-09-10T10:55:23.504Z,0.75
2022-09-10T10:57:55.744Z,0.40
2022-09-10T11:00:22.718Z,0.40
2022-09-10T11:02:54.532Z,0.47
2022-09-10T11:05:31.574Z,0.55
2022-09-10T11:08:28.782Z,0.50
2022-09-10T11:11:16.540Z,0.50
2022-09-10T11:14:12.528Z,0.82
2022-09-10T11:16:46.726Z,0.50
2022-09-10T11:20:05.121Z,0.40
2022-09-10T11:23:07.050Z,0.63
2022-09-10T11:25:40.292Z,0.50
2022-09-10T11:28:15.440Z,0.50
2022-09-10T11:30:48.270Z,0.47
2022-09-10T11:33:24.921Z,0.40
2022-09-10T11:36:03.690Z,0.40
2022-09-10T11:38:42.310Z,0.40
2022-09-10T11:41:19.113Z,0.43
2022-09-10T11:44:12.599Z,0.85
2022-09-10T11:46:56.472Z,0.30
2022-09-10T11:49:47.691Z,0.25
2022-09-10T11:52:16.292Z,0.40
2022-09-10T11:54:46.591Z,0.50
2022-09-10T11:57:24.952Z,0.90
2022-09-10T12:00:17.041Z,0.57
2022-09-10T12:02:49.552Z,0.50
2022-09-10T12:05:38.083Z,0.40
2022-09-10T12:08:38.329Z,0.43
2022-09-10T12:11:18.882Z,0.50
2022-09-10T12:13:47.479Z,0.63
2022-09-10T12:16:30.339Z,0.47
2022-09-10T12:18:59.067Z,0.43
2022-09-10T12:21:37.695Z,0.52
2022-09-10T12:24:21.893Z,0.50
2022-09-10T12:26:49.273Z,0.50
2022-09-10T12:29:35.158Z,0.47
2022-09-10T12:32:08.247Z,0.80
2022-09-10T12:34:36.758Z,0.60
2022-09-10T12:37:03.834Z,0.40
2022-09-10T12:39:31.069Z,0.60
2022-09-10T12:41:59.671Z,0.75
2022-09-10T12:44:36.042Z,0.60
2022-09-10T12:47:18.091Z,0.50
2022-09-10T12:49:57.340Z,0.70
2022-09-10T12:52:32.018Z,0.70
2022-09-10T12:55:44.014Z,0.80
2022-09-10T12:58:29.258Z,0.90
2022-09-10T13:00:56.167Z,0.63
2022-09-10T13:03:27.864Z,0.45
2022-09-10T13:05:57.738Z,0.60
2022-09-10T13:08:44.854Z,0.60
2022-09-10T13:11:24.413Z,0.80
2022-09-10T13:13:54.565Z,0.63
2022-09-10T13:16:27.406Z,0.30
2022-09-10T13:19:17.559Z,0.50
2022-09-10T13:21:44.699Z,0.47
2022-09-10T13:24:34.126Z,0.50
2022-09-10T13:27:13.142Z,0.68
2022-09-10T13:29:43.370Z,0.60
2022-09-10T13:32:31.827Z,0.75
2022-09-10T13:35:26.967Z,0.80
2022-09-10T13:37:53.701Z,0.60
2022-09-10T13:40:49.437Z,1.95
2022-09-10T13:43:41.750Z,0.50
2022-09-10T13:46:35.262Z,0.85
2022-09-10T13:49:13.623Z,0.77
2022-09-10T13:51:54.548Z,0.98
2022-09-10T13:54:45.391Z,0.65
2022-09-10T13:57:13.301Z,0.77
2022-09-10T13:59:42.032Z,0.55
2022-09-10T14:02:09.416Z,0.95
2022-09-10T14:04:44.914Z,0.60
2022-09-10T14:07:20.680Z,0.55
2022-09-10T14:10:00.234Z,0.50
2022-09-10T14:12:29.275Z,0.55
2022-09-10T14:14:59.507Z,1.42
2022-09-10T14:17:32.208Z,0.68
2022-09-10T14:20:02.302Z,0.90
2022-09-10T14:22:31.813Z,0.70
2022-09-10T14:25:01.630Z,0.60
2022-09-10T14:27:34.799Z,0.60
2022-09-10T14:30:23.550Z,0.32
2022-09-10T14:32:52.053Z,0.60
2022-09-10T14:35:54.496Z,0.60
2022-09-10T14:38:39.465Z,0.50
2022-09-10T14:41:21.735Z,0.63
2022-09-10T14:43:49.739Z,0.70
2022-09-10T14:47:10.768Z,0.57
2022-09-10T14:49:39.488Z,0.50
2022-09-10T14:52:07.812Z,0.50
2022-09-10T14:54:35.173Z,0.40
2022-09-10T14:57:10.046Z,0.70
2022-09-10T14:59:39.824Z,0.60
2022-09-10T15:02:15.509Z,0.68
2022-09-10T15:04:42.294Z,0.60
2022-09-10T15:07:10.325Z,1.27
2022-09-10T15:09:37.222Z,0.63
2022-09-10T15:12:24.821Z,0.70
2022-09-10T15:14:51.851Z,0.68
2022-09-10T15:17:19.096Z,0.50
2022-09-10T15:19:49.914Z,1.38
2022-09-10T15:22:27.733Z,0.65
2022-09-10T15:25:11.713Z,0.80
2022-09-10T15:27:38.606Z,0.68
2022-09-10T15:30:26.361Z,0.70
2022-09-10T15:32:54.396Z,0.70
2022-09-10T15:35:23.271Z,0.60
2022-09-10T15:37:51.234Z,0.70
2022-09-10T15:40:18.087Z,0.60
2022-09-10T15:42:45.121Z,0.85
2022-09-10T15:45:12.329Z,0.70
2022-09-10T15:47:41.973Z,0.60
2022-09-10T15:50:11.354Z,0.50
2022-09-10T15:52:38.715Z,0.50
2022-09-10T15:55:07.037Z,0.70
2022-09-10T15:57:35.864Z,0.60
2022-09-10T16:00:06.811Z,0.45
2022-09-10T16:02:34.147Z,0.70
2022-09-10T16:05:03.838Z,0.70
2022-09-10T16:07:30.552Z,0.77
2022-09-10T16:09:58.747Z,0.60
2022-09-10T16:12:28.680Z,0.50
2022-09-10T16:14:55.799Z,0.52
2022-09-10T16:17:22.751Z,0.45
2022-09-10T16:19:51.280Z,0.30
2022-09-10T16:22:20.720Z,0.50
2022-09-10T16:24:47.628Z,0.40
2022-09-10T16:27:16.259Z,0.50
2022-09-10T16:29:43.627Z,0.60
2022-09-10T16:32:11.143Z,0.50
2022-09-10T16:34:38.638Z,0.30
2022-09-10T16:37:06.134Z,0.70
2022-09-10T16:39:32.826Z,0.50
2022-09-10T16:41:59.595Z,0.30
2022-09-10T16:44:26.967Z,0.68
2022-09-10T16:46:53.930Z,0.50
2022-09-10T16:49:20.751Z,0.30
2022-09-10T16:51:49.132Z,0.30
2022-09-10T16:54:19.510Z,0.52
2022-09-10T16:56:47.939Z,0.38
2022-09-10T16:59:22.901Z,0.25
2022-09-10T17:01:51.914Z,0.40
2022-09-10T17:04:29.155Z,0.52
2022-09-10T17:06:57.385Z,0.40
2022-09-10T17:09:24.987Z,0.43
2022-09-10T17:11:52.020Z,0.50
2022-09-10T17:14:19.420Z,0.40
2022-09-10T17:16:47.919Z,0.30
2022-09-10T17:19:18.327Z,0.50
2022-09-10T17:21:53.140Z,0.45
2022-09-10T17:24:22.592Z,1.02
2022-09-10T17:26:50.342Z,0.43
2022-09-10T17:29:20.052Z,0.40
2022-09-10T17:31:47.546Z,0.38
2022-09-10T17:34:16.155Z,0.50
2022-09-10T17:36:45.317Z,0.43
2022-09-10T17:39:13.314Z,0.47
2022-09-10T17:41:40.798Z,0.50
2022-09-10T17:44:08.094Z,0.50
2022-09-10T17:46:36.187Z,0.43
2022-09-10T17:49:04.576Z,0.45
2022-09-10T17:51:33.812Z,0.70
2022-09-10T17:54:03.025Z,0.60
2022-09-10T17:56:30.703Z,0.68
2022-09-10T17:59:02.651Z,0.50
2022-09-10T18:01:32.011Z,0.75
2022-09-10T18:03:59.290Z,0.55
2022-09-10T18:06:28.901Z,0.68
2022-09-10T18:09:00.932Z,0.60
2022-09-10T18:11:30.982Z,0.45
2022-09-10T18:13:59.601Z,0.60
2022-09-10T18:16:30.933Z,0.68
2022-09-10T18:19:04.377Z,0.73
2022-09-10T18:21:36.590Z,0.50
2022-09-10T18:24:10.491Z,0.45
2022-09-10T18:26:41.126Z,0.70
2022-09-10T18:29:10.396Z,0.50
2022-09-10T18:31:39.763Z,0.40
2022-09-10T18:34:09.467Z,0.63
2022-09-10T18:36:36.650Z,0.85
2022-09-10T18:39:04.998Z,1.00
2022-09-10T18:41:33.711Z,0.80
2022-09-10T18:44:04.100Z,0.50
2022-09-10T18:46:32.984Z,0.73
2022-09-10T18:49:00.871Z,0.77
2022-09-10T18:51:29.685Z,1.02
2022-09-10T18:53:59.035Z,0.90
2022-09-10T18:56:29.859Z,1.33
2022-09-10T18:59:03.113Z,0.80
2022-09-10T19:01:30.957Z,1.23
2022-09-10T19:03:58.221Z,1.10
2022-09-10T19:06:27.292Z,0.75
2022-09-10T19:08:59.761Z,1.10
2022-09-10T19:11:32.914Z,0.80
2022-09-10T19:14:01.730Z,1.05
2022-09-10T19:16:30.565Z,1.10
2022-09-10T19:19:02.841Z,1.08
2022-09-10T19:21:32.525Z,0.88
2022-09-10T19:24:00.928Z,1.17
2022-09-10T19:26:31.961Z,1.05
2022-09-10T19:29:01.153Z,0.50
2022-09-10T19:31:30.349Z,0.60
2022-09-10T19:33:59.208Z,0.93
2022-09-10T19:36:31.625Z,0.82
2022-09-10T19:38:59.590Z,0.95
2022-09-10T19:41:27.189Z,0.82
2022-09-10T19:43:54.917Z,1.08
2022-09-10T19:46:24.938Z,0.73
2022-09-10T19:48:53.184Z,0.73
2022-09-10T19:51:20.653Z,0.90
2022-09-10T19:53:49.458Z,0.85
2022-09-10T19:56:20.646Z,0.70
2022-09-10T19:58:52.456Z,1.23
2022-09-10T20:04:08.848Z,0.93
2022-09-10T20:06:36.495Z,1.00
2022-09-10T20:09:04.898Z,0.90
2022-09-10T20:11:33.262Z,0.82
2022-09-10T20:14:02.583Z,1.10
2022-09-10T20:16:29.890Z,1.38
2022-09-10T20:18:56.679Z,1.35
2022-09-10T20:21:26.892Z,1.13
2022-09-10T20:23:56.177Z,1.00
2022-09-10T20:26:43.682Z,0.70
2022-09-10T20:29:13.001Z,0.73
2022-09-10T20:31:41.114Z,0.88
2022-09-10T20:34:16.673Z,0.80
2022-09-10T20:36:43.861Z,0.95
2022-09-10T20:39:13.666Z,0.75
2022-09-10T20:41:40.739Z,1.05
2022-09-10T20:44:08.266Z,0.80
2022-09-10T20:46:35.066Z,0.60
2022-09-10T20:49:04.866Z,0.82
2022-09-10T20:51:36.228Z,1.23
2022-09-10T20:54:04.222Z,0.80
2022-09-10T20:56:31.079Z,0.80
2022-09-10T20:58:58.469Z,0.80
2022-09-10T21:01:27.283Z,1.08
2022-09-10T21:03:57.947Z,1.38
2022-09-10T21:06:27.109Z,1.80
2022-09-10T21:08:56.929Z,1.50
2022-09-10T21:11:25.711Z,1.08
2022-09-10T21:13:57.535Z,1.50
2022-09-10T21:16:29.758Z,2.58
2022-09-10T21:19:00.777Z,2.45
2022-09-10T21:21:30.408Z,2.90
2022-09-10T21:24:00.237Z,2.42
2022-09-10T21:26:29.721Z,1.67
2022-09-10T21:28:59.748Z,2.08
2022-09-10T21:31:28.188Z,1.65
2022-09-10T21:34:00.609Z,0.93
2022-09-10T21:36:29.870Z,0.90
2022-09-10T21:38:59.491Z,1.02
2022-09-10T21:41:34.155Z,0.77
2022-09-10T21:44:02.944Z,0.80
2022-09-10T21:46:30.750Z,1.00
2022-09-10T21:48:58.173Z,1.02
2022-09-10T21:51:25.539Z,1.75
2022-09-10T21:53:56.627Z,1.60
2022-09-10T21:56:26.074Z,1.70
2022-09-10T21:58:53.856Z,1.70
2022-09-10T22:01:23.550Z,2.35
2022-09-10T22:03:56.110Z,1.23
2022-09-10T22:06:25.837Z,1.20
2022-09-10T22:08:57.665Z,1.70
2022-09-10T22:11:31.888Z,1.38
2022-09-10T22:14:01.376Z,1.23
2022-09-10T22:16:31.221Z,1.42
2022-09-10T22:19:04.916Z,1.00
2022-09-10T22:21:32.970Z,1.30
2022-09-10T22:24:00.006Z,1.30
2022-09-10T22:26:28.232Z,1.52
2022-09-10T22:28:58.092Z,1.17
2022-09-10T22:31:27.755Z,1.33
2022-09-10T22:33:56.933Z,1.38
2022-09-10T22:36:31.014Z,2.00
2022-09-10T22:39:00.781Z,0.93
2022-09-10T22:41:29.526Z,0.90
2022-09-10T22:43:57.127Z,0.70
2022-09-10T22:46:24.445Z,0.70
2022-09-10T22:48:51.185Z,0.73
2022-09-10T22:51:20.130Z,0.70
2022-09-10T22:53:47.076Z,0.70
2022-09-10T22:56:15.829Z,1.02
2022-09-10T22:58:42.716Z,0.80
2022-09-10T23:01:14.996Z,1.85
2022-09-10T23:03:43.218Z,0.80
2022-09-10T23:06:15.681Z,1.33
2022-09-10T23:08:44.532Z,0.82
2022-09-10T23:11:21.858Z,0.90
2022-09-10T23:13:52.721Z,0.77
2022-09-10T23:16:28.856Z,0.75
2022-09-10T23:18:57.757Z,0.55
2022-09-10T23:21:25.875Z,1.42
2022-09-10T23:23:54.877Z,1.00
2022-09-10T23:26:22.527Z,0.80
2022-09-10T23:28:49.368Z,1.00
2022-09-10T23:31:24.709Z,0.80
2022-09-10T23:33:59.807Z,0.70
2022-09-10T23:36:28.467Z,0.95
2022-09-10T23:38:55.190Z,0.80
2022-09-10T23:41:21.954Z,0.93
2022-09-10T23:43:48.641Z,1.25
2022-09-10T23:46:15.565Z,0.70
2022-09-10T23:48:43.039Z,0.90
2022-09-10T23:51:13.655Z,0.80
2022-09-10T23:53:40.580Z,0.93
2022-09-10T23:56:07.405Z,1.10
2022-09-10T23:58:34.416Z,1.00
